createdAt,value
2018-07-03T00:01:59.454Z,43.94
2018-07-03T00:04:28.341Z,43.95
2018-07-03T00:06:57.192Z,44.22
2018-07-03T00:09:26.025Z,44.20
2018-07-03T00:11:54.894Z,44.24
2018-07-03T00:14:41.661Z,44.22
2018-07-03T00:17:19.437Z,44.56
2018-07-03T00:19:49.635Z,45.02
2018-07-03T00:22:19.171Z,44.89
2018-07-03T00:24:48.024Z,45.04
2018-07-03T00:27:17.667Z,45.08
2018-07-03T00:29:46.612Z,45.35
2018-07-03T00:32:15.496Z,45.22
2018-07-03T00:34:44.411Z,45.35
2018-07-03T00:37:13.255Z,45.41
2018-07-03T00:39:42.054Z,45.54
2018-07-03T00:42:10.878Z,45.86
2018-07-03T00:44:39.705Z,45.93
2018-07-03T00:47:08.542Z,46.03
2018-07-03T00:49:37.392Z,45.85
2018-07-03T00:52:06.266Z,46.01
2018-07-03T00:54:35.081Z,46.23
2018-07-03T00:57:04.203Z,46.17
2018-07-03T00:59:33.025Z,46.58
2018-07-03T01:02:01.858Z,46.68
2018-07-03T01:04:30.687Z,46.92
2018-07-03T01:06:59.545Z,46.64
2018-07-03T01:09:28.362Z,46.46
2018-07-03T01:11:57.211Z,46.54
2018-07-03T01:14:26.049Z,46.72
2018-07-03T01:16:54.972Z,46.73
2018-07-03T01:19:30.041Z,47.10
2018-07-03T01:21:58.882Z,47.32
2018-07-03T01:24:27.733Z,47.50
2018-07-03T01:26:56.571Z,47.67
2018-07-03T01:29:25.407Z,47.66
2018-07-03T01:31:54.232Z,48.02
2018-07-03T01:34:23.100Z,48.29
2018-07-03T01:36:51.942Z,48.66
2018-07-03T01:39:20.788Z,48.69
2018-07-03T01:41:49.789Z,48.91
2018-07-03T01:44:18.659Z,48.79
2018-07-03T01:46:47.522Z,48.90
2018-07-03T01:49:16.343Z,49.40
2018-07-03T01:51:45.193Z,49.32
2018-07-03T01:54:14.028Z,49.29
2018-07-03T01:56:42.893Z,49.58
2018-07-03T01:59:11.730Z,49.50
2018-07-03T02:01:41.352Z,49.93
2018-07-03T02:04:13.400Z,50.17
2018-07-03T02:06:42.255Z,50.39
2018-07-03T02:09:12.907Z,50.62
2018-07-03T02:11:42.933Z,50.64
2018-07-03T02:14:11.787Z,50.84
2018-07-03T02:16:40.657Z,51.10
2018-07-03T02:19:09.489Z,51.27
2018-07-03T02:21:38.346Z,51.33
2018-07-03T02:24:07.159Z,51.66
2018-07-03T02:26:36.151Z,51.42
2018-07-03T02:29:04.994Z,51.63
2018-07-03T02:31:33.819Z,51.48
2018-07-03T02:34:02.660Z,51.89
2018-07-03T02:36:31.510Z,51.93
2018-07-03T02:39:00.362Z,51.98
2018-07-03T02:41:29.222Z,51.83
2018-07-03T02:43:58.066Z,52.03
2018-07-03T02:46:26.899Z,52.38
2018-07-03T02:48:58.908Z,52.74
2018-07-03T02:51:27.947Z,52.66
2018-07-03T02:53:56.822Z,52.87
2018-07-03T02:56:25.689Z,53.13
2018-07-03T02:58:54.948Z,53.49
2018-07-03T03:01:23.868Z,53.75
2018-07-03T03:03:52.697Z,54.21
2018-07-03T03:06:21.555Z,54.15
2018-07-03T03:08:50.387Z,54.38
2018-07-03T03:11:22.883Z,54.52
2018-07-03T03:13:53.815Z,54.58
2018-07-03T03:16:22.684Z,54.95
2018-07-03T03:18:51.509Z,54.96
2018-07-03T03:21:20.438Z,54.93
2018-07-03T03:23:49.294Z,55.21
2018-07-03T03:26:18.327Z,55.27
2018-07-03T03:28:47.156Z,55.54
2018-07-03T03:31:16.008Z,55.46
2018-07-03T03:33:44.828Z,55.43
2018-07-03T03:36:13.676Z,55.72
2018-07-03T03:38:42.527Z,56.40
2018-07-03T03:41:11.363Z,55.95
2018-07-03T03:43:40.163Z,56.65
2018-07-03T03:46:08.991Z,56.18
2018-07-03T03:48:37.830Z,56.55
2018-07-03T03:51:06.657Z,56.74
2018-07-03T03:53:35.535Z,56.45
2018-07-03T03:56:04.403Z,56.67
2018-07-03T03:58:33.230Z,56.78
2018-07-03T04:01:02.057Z,57.06
2018-07-03T04:03:30.892Z,57.14
2018-07-03T04:05:59.805Z,57.41
2018-07-03T04:08:28.660Z,57.64
2018-07-03T04:10:57.564Z,57.81
2018-07-03T04:13:26.415Z,58.25
2018-07-03T04:15:55.366Z,58.28
2018-07-03T04:18:30.848Z,58.16
2018-07-03T04:20:59.855Z,58.38
2018-07-03T04:23:28.777Z,58.59
2018-07-03T04:25:57.803Z,58.55
2018-07-03T04:28:26.652Z,58.47
2018-07-03T04:30:55.556Z,58.91
2018-07-03T04:33:24.389Z,58.80
2018-07-03T04:35:53.251Z,58.80
2018-07-03T04:38:22.106Z,58.84
2018-07-03T04:40:50.937Z,59.22
2018-07-03T04:43:19.816Z,58.94
2018-07-03T04:45:48.741Z,59.16
2018-07-03T04:48:17.562Z,59.18
2018-07-03T04:50:46.450Z,59.16
2018-07-03T04:53:15.263Z,59.17
2018-07-03T04:55:44.135Z,59.04
2018-07-03T04:58:30.447Z,58.91
2018-07-03T05:00:59.302Z,58.75
2018-07-03T05:03:28.152Z,58.88
2018-07-03T05:05:57.018Z,59.06
2018-07-03T05:08:25.886Z,59.05
2018-07-03T05:10:54.703Z,58.99
2018-07-03T05:13:23.566Z,58.88
2018-07-03T05:15:52.412Z,58.92
2018-07-03T05:18:21.253Z,58.95
2018-07-03T05:21:07.930Z,58.92
2018-07-03T05:23:36.764Z,58.93
2018-07-03T05:26:05.628Z,58.60
2018-07-03T05:28:34.470Z,58.73
2018-07-03T05:31:03.321Z,58.69
2018-07-03T05:33:32.178Z,58.48
2018-07-03T05:36:01.021Z,58.84
2018-07-03T05:38:29.893Z,58.75
2018-07-03T05:40:58.758Z,58.53
2018-07-03T05:43:30.430Z,58.27
2018-07-03T05:45:59.269Z,57.88
2018-07-03T05:48:28.100Z,57.78
2018-07-03T05:50:56.959Z,57.38
2018-07-03T05:53:25.790Z,57.22
2018-07-03T05:55:54.672Z,56.49
2018-07-03T05:58:23.543Z,55.57
2018-07-03T06:00:52.446Z,55.08
2018-07-03T06:03:21.313Z,54.36
2018-07-03T06:05:50.147Z,53.47
2018-07-03T06:08:18.995Z,52.33
2018-07-03T06:10:47.859Z,51.54
2018-07-03T06:13:16.721Z,50.25
2018-07-03T06:15:45.562Z,49.25
2018-07-03T06:18:14.497Z,48.07
2018-07-03T06:20:43.386Z,46.77
2018-07-03T06:23:12.236Z,45.00
2018-07-03T06:25:41.100Z,43.86
2018-07-03T06:28:10.120Z,42.80
2018-07-03T06:30:38.958Z,40.95
2018-07-03T06:33:07.814Z,38.67
2018-07-03T06:35:36.634Z,33.26
2018-07-03T06:38:05.561Z,28.87
2018-07-03T06:40:34.419Z,25.87
2018-07-03T06:43:03.260Z,23.75
2018-07-03T06:45:32.100Z,22.49
2018-07-03T06:48:00.932Z,20.87
2018-07-03T06:50:29.910Z,19.99
2018-07-03T06:52:58.773Z,18.44
2018-07-03T06:55:27.641Z,17.93
2018-07-03T06:57:56.544Z,17.06
2018-07-03T07:00:25.340Z,16.61
2018-07-03T07:02:54.154Z,16.60
2018-07-03T07:05:23.008Z,16.40
2018-07-03T07:07:51.827Z,15.52
2018-07-03T07:10:20.680Z,14.94
2018-07-03T07:12:49.580Z,15.13
2018-07-03T07:15:18.430Z,15.29
2018-07-03T07:17:47.294Z,15.51
2018-07-03T07:20:16.181Z,14.66
2018-07-03T07:22:45.035Z,14.42
2018-07-03T07:25:13.879Z,15.05
2018-07-03T07:27:42.712Z,14.28
2018-07-03T07:30:11.565Z,14.95
2018-07-03T07:32:40.391Z,15.10
2018-07-03T07:35:15.222Z,14.63
2018-07-03T07:37:44.064Z,14.23
2018-07-03T07:40:12.901Z,14.23
2018-07-03T07:42:41.897Z,15.16
2018-07-03T07:45:10.661Z,14.56
2018-07-03T07:47:39.514Z,14.37
2018-07-03T07:50:08.348Z,14.05
2018-07-03T07:52:37.209Z,14.08
2018-07-03T07:55:06.025Z,13.75
2018-07-03T07:58:31.476Z,13.91
2018-07-03T08:01:00.301Z,13.97
2018-07-03T08:03:29.207Z,13.13
2018-07-03T08:05:58.103Z,13.00
2018-07-03T08:08:27.141Z,12.96
2018-07-03T08:10:55.977Z,12.85
2018-07-03T08:13:24.862Z,12.62
2018-07-03T08:15:53.686Z,12.69
2018-07-03T08:18:22.602Z,11.81
2018-07-03T08:21:00.126Z,12.21
2018-07-03T08:23:28.967Z,11.80
2018-07-03T08:25:57.800Z,11.91
2018-07-03T08:28:26.612Z,12.66
2018-07-03T08:30:55.509Z,11.94
2018-07-03T08:33:24.325Z,11.91
2018-07-03T08:35:53.163Z,12.12
2018-07-03T08:38:22.012Z,11.60
2018-07-03T08:40:53.520Z,11.25
2018-07-03T08:43:22.383Z,11.23
2018-07-03T08:45:52.015Z,11.09
2018-07-03T08:48:21.006Z,11.03
2018-07-03T08:50:49.970Z,11.51
2018-07-03T08:53:18.807Z,10.82
2018-07-03T08:55:47.657Z,10.51
2018-07-03T08:58:16.573Z,10.45
2018-07-03T09:00:45.588Z,10.06
2018-07-03T09:03:14.429Z,10.21
2018-07-03T09:05:43.261Z,9.92
2018-07-03T09:08:12.098Z,9.53
2018-07-03T09:10:40.913Z,9.92
2018-07-03T09:13:09.765Z,9.60
2018-07-03T09:15:38.590Z,9.46
2018-07-03T09:18:07.669Z,9.51
2018-07-03T09:20:36.432Z,9.09
2018-07-03T09:23:05.294Z,8.97
2018-07-03T09:25:34.312Z,9.49
2018-07-03T09:28:03.133Z,8.77
2018-07-03T09:30:32.114Z,9.24
2018-07-03T09:33:00.882Z,9.57
2018-07-03T09:35:29.792Z,9.82
2018-07-03T09:37:58.620Z,9.81
2018-07-03T09:40:27.486Z,9.71
2018-07-03T09:42:56.262Z,9.63
2018-07-03T09:45:25.079Z,9.38
2018-07-03T09:47:55.203Z,10.28
2018-07-03T09:50:24.097Z,9.57
2018-07-03T09:52:52.943Z,9.00
2018-07-03T09:55:21.854Z,10.03
2018-07-03T09:57:50.743Z,9.88
2018-07-03T10:00:37.374Z,9.55
2018-07-03T10:03:06.289Z,10.18
2018-07-03T10:05:35.136Z,9.79
2018-07-03T10:08:58.436Z,10.33
2018-07-03T10:11:27.296Z,9.17
2018-07-03T10:13:56.190Z,8.71
2018-07-03T10:16:25.042Z,8.92
2018-07-03T10:18:53.902Z,9.05
2018-07-03T10:21:22.674Z,9.82
2018-07-03T10:23:51.554Z,9.11
2018-07-03T10:26:20.403Z,9.34
2018-07-03T10:28:49.243Z,9.81
2018-07-03T10:31:18.094Z,8.74
2018-07-03T10:33:46.919Z,9.50
2018-07-03T10:36:15.762Z,9.92
2018-07-03T10:38:44.601Z,9.56
2018-07-03T10:41:13.555Z,9.24
2018-07-03T10:43:42.317Z,9.82
2018-07-03T10:46:11.378Z,8.90
2018-07-03T10:48:40.225Z,9.91
2018-07-03T10:51:09.126Z,9.56
2018-07-03T10:53:39.101Z,10.46
2018-07-03T10:56:07.955Z,10.83
2018-07-03T10:58:36.829Z,10.10
2018-07-03T11:01:05.739Z,9.70
2018-07-03T11:03:34.726Z,9.65
2018-07-03T11:06:03.623Z,10.06
2018-07-03T11:08:32.754Z,9.83
2018-07-03T11:11:01.620Z,9.72
2018-07-03T11:13:30.529Z,9.97
2018-07-03T11:15:59.484Z,9.47
2018-07-03T11:18:28.300Z,9.34
2018-07-03T11:20:57.159Z,10.35
2018-07-03T11:23:26.021Z,10.06
2018-07-03T11:25:54.877Z,9.43
2018-07-03T11:28:23.714Z,10.09
2018-07-03T11:30:52.567Z,10.42
2018-07-03T11:33:21.400Z,9.80
2018-07-03T11:35:50.233Z,10.50
2018-07-03T11:38:19.181Z,10.09
2018-07-03T11:40:48.019Z,10.26
2018-07-03T11:43:16.963Z,10.66
2018-07-03T11:45:45.927Z,10.57
2018-07-03T11:48:14.765Z,10.60
2018-07-03T11:50:43.605Z,10.35
2018-07-03T11:53:12.541Z,10.14
2018-07-03T11:55:41.342Z,9.98
2018-07-03T11:58:10.281Z,10.44
2018-07-03T12:00:39.351Z,10.96
2018-07-03T12:03:08.213Z,10.82
2018-07-03T12:05:37.125Z,10.52
2018-07-03T12:08:05.996Z,10.77
2018-07-03T12:10:34.867Z,10.88
2018-07-03T12:13:03.748Z,11.88
2018-07-03T12:15:32.599Z,11.72
2018-07-03T12:18:01.454Z,12.56
2018-07-03T12:20:30.308Z,12.42
2018-07-03T12:23:02.303Z,13.17
2018-07-03T12:25:31.139Z,13.76
2018-07-03T12:27:59.987Z,13.75
2018-07-03T12:30:28.860Z,14.02
2018-07-03T12:32:57.689Z,13.80
2018-07-03T12:35:26.514Z,13.65
2018-07-03T12:37:55.366Z,14.22
2018-07-03T12:40:24.222Z,14.53
2018-07-03T12:42:53.068Z,14.62
2018-07-03T12:45:28.979Z,14.54
2018-07-03T12:47:57.799Z,14.68
2018-07-03T12:50:26.644Z,15.32
2018-07-03T12:52:55.468Z,15.35
2018-07-03T12:55:24.374Z,15.48
2018-07-03T12:57:53.220Z,15.02
2018-07-03T13:00:25.923Z,15.34
2018-07-03T13:03:01.111Z,15.00
2018-07-03T13:05:30.929Z,15.04
2018-07-03T13:08:00.645Z,15.80
2018-07-03T13:10:29.491Z,15.67
2018-07-03T13:12:58.336Z,15.03
2018-07-03T13:15:27.144Z,15.68
2018-07-03T13:17:56.008Z,15.28
2018-07-03T13:20:24.852Z,14.98
2018-07-03T13:22:53.701Z,15.44
2018-07-03T13:25:22.521Z,15.39
2018-07-03T13:28:00.008Z,15.15
2018-07-03T13:30:28.882Z,15.99
2018-07-03T13:32:57.751Z,15.68
2018-07-03T13:35:26.598Z,15.75
2018-07-03T13:37:55.858Z,15.61
2018-07-03T13:40:24.696Z,16.08
2018-07-03T13:42:53.804Z,16.11
2018-07-03T13:45:22.700Z,16.04
2018-07-03T13:47:51.609Z,16.41
2018-07-03T13:50:21.181Z,16.07
2018-07-03T13:52:50.045Z,16.18
2018-07-03T13:55:18.877Z,15.97
2018-07-03T13:57:47.676Z,16.38
2018-07-03T14:00:16.512Z,16.16
2018-07-03T14:02:45.358Z,16.45
2018-07-03T14:05:14.239Z,16.64
2018-07-03T14:07:43.063Z,16.24
2018-07-03T14:10:11.915Z,16.18
2018-07-03T14:12:41.741Z,16.14
2018-07-03T14:15:10.728Z,16.12
2018-07-03T14:17:39.816Z,16.37
2018-07-03T14:20:08.707Z,16.41
2018-07-03T14:22:37.553Z,16.91
2018-07-03T14:25:06.394Z,16.82
2018-07-03T14:27:35.232Z,16.76
2018-07-03T14:30:04.668Z,17.24
2018-07-03T14:32:33.516Z,17.42
2018-07-03T14:35:08.680Z,17.70
2018-07-03T14:37:37.635Z,17.64
2018-07-03T14:40:06.404Z,17.55
2018-07-03T14:42:37.155Z,17.36
2018-07-03T14:45:06.337Z,17.47
2018-07-03T14:47:35.178Z,17.90
2018-07-03T14:50:04.048Z,17.26
2018-07-03T14:52:32.894Z,17.35
2018-07-03T14:55:01.751Z,17.62
2018-07-03T14:57:30.855Z,18.13
2018-07-03T14:59:59.707Z,17.82
2018-07-03T15:02:30.297Z,17.78
2018-07-03T15:04:59.130Z,17.33
2018-07-03T15:07:27.969Z,17.72
2018-07-03T15:09:56.892Z,17.92
2018-07-03T15:12:26.041Z,17.42
2018-07-03T15:14:54.893Z,17.88
2018-07-03T15:17:24.124Z,17.90
2018-07-03T15:19:59.603Z,17.73
2018-07-03T15:22:28.450Z,18.13
2018-07-03T15:24:57.393Z,18.27
2018-07-03T15:27:26.204Z,19.18
2018-07-03T15:29:55.052Z,18.02
2018-07-03T15:32:23.899Z,17.79
2018-07-03T15:34:52.732Z,17.97
2018-07-03T15:37:21.587Z,18.05
2018-07-03T15:39:50.468Z,18.37
2018-07-03T15:42:19.296Z,18.62
2018-07-03T15:45:08.937Z,18.06
2018-07-03T15:47:37.810Z,18.20
2018-07-03T15:50:07.877Z,18.28
2018-07-03T15:52:36.748Z,18.06
2018-07-03T15:55:06.139Z,18.26
2018-07-03T15:57:38.009Z,18.38
2018-07-03T16:00:09.220Z,18.67
2018-07-03T16:02:38.124Z,18.21
2018-07-03T16:05:43.753Z,18.26
2018-07-03T16:08:49.795Z,19.27
2018-07-03T16:11:18.799Z,18.13
2018-07-03T16:13:48.413Z,18.07
2018-07-03T16:16:17.267Z,18.25
2018-07-03T16:18:46.168Z,18.51
2018-07-03T16:21:15.166Z,18.49
2018-07-03T16:23:44.026Z,18.73
2018-07-03T16:26:12.866Z,19.11
2018-07-03T16:28:41.729Z,18.58
2018-07-03T16:31:10.588Z,18.73
2018-07-03T16:33:39.475Z,17.89
2018-07-03T16:36:08.428Z,18.36
2018-07-03T16:38:37.268Z,18.76
2018-07-03T16:41:06.158Z,18.60
2018-07-03T16:43:35.012Z,18.48
2018-07-03T16:46:03.866Z,18.66
2018-07-03T16:48:32.725Z,19.01
2018-07-03T16:51:01.540Z,19.22
2018-07-03T16:53:30.416Z,19.20
2018-07-03T16:55:59.257Z,19.59
2018-07-03T16:58:28.114Z,18.99
2018-07-03T17:00:56.981Z,19.12
2018-07-03T17:03:26.161Z,20.36
2018-07-03T17:05:55.125Z,19.40
2018-07-03T17:08:23.963Z,18.98
2018-07-03T17:10:52.839Z,19.41
2018-07-03T17:13:21.696Z,19.59
2018-07-03T17:15:50.532Z,20.16
2018-07-03T17:18:19.423Z,19.70
2018-07-03T17:20:48.303Z,19.77
2018-07-03T17:23:17.183Z,20.38
2018-07-03T17:25:49.071Z,20.33
2018-07-03T17:28:17.931Z,21.00
2018-07-03T17:30:46.866Z,20.99
2018-07-03T17:33:15.750Z,20.95
2018-07-03T17:35:44.644Z,20.55
2018-07-03T17:38:13.499Z,20.67
2018-07-03T17:41:19.245Z,21.07
2018-07-03T17:44:25.405Z,21.74
2018-07-03T17:46:54.325Z,21.75
2018-07-03T17:49:23.220Z,22.17
2018-07-03T17:51:52.071Z,22.77
2018-07-03T17:54:20.944Z,23.17
2018-07-03T17:56:49.764Z,23.65
2018-07-03T17:59:18.809Z,24.41
2018-07-03T18:01:47.758Z,24.81
2018-07-03T18:04:16.605Z,25.29
2018-07-03T18:06:45.579Z,25.73
2018-07-03T18:09:23.219Z,25.76
2018-07-03T18:11:52.056Z,26.08
2018-07-03T18:14:21.032Z,26.91
2018-07-03T18:16:49.821Z,27.83
2018-07-03T18:19:36.767Z,27.99
2018-07-03T18:22:05.598Z,28.54
2018-07-03T18:24:34.433Z,28.89
2018-07-03T18:27:03.375Z,29.42
2018-07-03T18:29:35.300Z,29.87
2018-07-03T18:32:04.160Z,30.55
2018-07-03T18:34:33.158Z,30.97
2018-07-03T18:37:02.138Z,31.41
2018-07-03T18:39:30.976Z,31.69
2018-07-03T18:41:59.855Z,32.31
2018-07-03T18:44:28.753Z,32.85
2018-07-03T18:46:57.674Z,33.01
2018-07-03T18:49:26.417Z,33.14
2018-07-03T18:51:55.333Z,33.64
2018-07-03T18:54:24.223Z,33.90
2018-07-03T18:56:53.154Z,33.89
2018-07-03T18:59:22.081Z,34.14
2018-07-03T19:01:50.920Z,34.41
2018-07-03T19:04:19.914Z,34.52
2018-07-03T19:06:48.823Z,34.75
2018-07-03T19:09:17.670Z,34.82
2018-07-03T19:11:46.652Z,35.16
2018-07-03T19:14:15.661Z,35.73
2018-07-03T19:16:44.548Z,35.80
2018-07-03T19:19:13.414Z,36.23
2018-07-03T19:21:42.308Z,36.51
2018-07-03T19:24:11.198Z,36.48
2018-07-03T19:26:40.168Z,36.68
2018-07-03T19:29:09.161Z,36.85
2018-07-03T19:31:38.125Z,36.83
2018-07-03T19:34:07.034Z,37.25
2018-07-03T19:36:42.218Z,37.61
2018-07-03T19:39:12.870Z,37.67
2018-07-03T19:41:42.292Z,37.85
2018-07-03T19:44:11.504Z,37.70
2018-07-03T19:46:40.445Z,37.96
2018-07-03T19:49:09.366Z,38.27
2018-07-03T19:51:38.207Z,38.48
2018-07-03T19:54:07.116Z,38.64
2018-07-03T19:56:35.902Z,38.83
2018-07-03T19:59:05.221Z,39.13
2018-07-03T20:01:34.266Z,39.41
2018-07-03T20:04:03.142Z,39.37
2018-07-03T20:06:32.431Z,39.58
2018-07-03T20:09:01.442Z,39.83
2018-07-03T20:11:30.310Z,40.06
2018-07-03T20:13:59.629Z,40.20
2018-07-03T20:16:28.479Z,40.44
2018-07-03T20:19:00.632Z,40.92
2018-07-03T20:21:29.352Z,41.05
2018-07-03T20:23:58.370Z,41.27
2018-07-03T20:26:27.344Z,41.54
2018-07-03T20:28:56.530Z,41.42
2018-07-03T20:31:25.413Z,41.96
2018-07-03T20:33:54.387Z,42.13
2018-07-03T20:36:23.524Z,42.21
2018-07-03T20:38:52.666Z,42.58
2018-07-03T20:41:21.991Z,42.88
2018-07-03T20:43:54.330Z,43.11
2018-07-03T20:46:25.796Z,43.50
2018-07-03T20:48:57.590Z,43.52
2018-07-03T20:51:27.497Z,43.93
2018-07-03T20:53:56.961Z,44.56
2018-07-03T20:56:27.419Z,44.29
2018-07-03T20:58:59.393Z,44.53
2018-07-03T21:01:28.272Z,45.08
2018-07-03T21:27:25.851Z,48.82
2018-07-03T21:30:00.638Z,49.80
2018-07-03T21:32:32.291Z,50.06
2018-07-03T21:35:03.072Z,50.20
2018-07-03T21:37:32.118Z,50.18
2018-07-03T21:40:04.521Z,50.24
2018-07-03T21:42:33.811Z,49.96
2018-07-03T21:45:57.652Z,49.92
2018-07-03T21:48:28.585Z,49.72
2018-07-03T21:50:55.897Z,50.05
2018-07-03T21:53:27.694Z,49.79
2018-07-03T21:55:56.858Z,50.03
2018-07-03T21:58:26.212Z,49.91
2018-07-03T22:00:57.937Z,49.85
2018-07-03T22:03:26.948Z,49.93
2018-07-03T22:05:56.000Z,49.93
2018-07-03T22:08:27.011Z,50.04
2018-07-03T22:10:56.124Z,50.45
2018-07-03T22:13:27.754Z,50.58
2018-07-03T22:15:56.625Z,50.41
2018-07-03T22:18:25.619Z,50.38
2018-07-03T22:20:57.525Z,50.57
2018-07-03T22:23:26.857Z,51.10
2018-07-03T22:25:58.992Z,51.27
2018-07-03T22:28:28.176Z,51.54
2018-07-03T22:30:57.398Z,51.79
2018-07-03T22:33:26.604Z,51.66
2018-07-03T22:35:55.778Z,51.91
2018-07-03T22:38:28.226Z,51.70
2018-07-03T22:40:57.301Z,51.86
2018-07-03T22:43:26.453Z,51.97
2018-07-03T22:45:55.944Z,52.04
2018-07-03T22:48:25.003Z,52.19
2018-07-03T22:50:54.415Z,52.27
2018-07-03T22:53:26.458Z,52.24
2018-07-03T22:55:58.435Z,52.59
2018-07-03T22:58:27.857Z,52.76
2018-07-03T23:00:57.061Z,53.16
2018-07-03T23:03:26.145Z,53.40
2018-07-03T23:05:55.288Z,53.28
2018-07-03T23:08:27.239Z,53.57
2018-07-03T23:10:56.424Z,53.37
2018-07-03T23:13:25.452Z,53.73
2018-07-03T23:15:54.539Z,53.54
2018-07-03T23:18:26.507Z,54.07
2018-07-03T23:20:55.702Z,53.78
2018-07-03T23:23:30.431Z,54.10
2018-07-03T23:25:58.506Z,53.89
2018-07-03T23:28:27.645Z,54.38
2018-07-03T23:30:56.717Z,54.41
2018-07-03T23:33:28.281Z,54.83
2018-07-03T23:35:57.531Z,54.59
2018-07-03T23:38:26.729Z,54.74
2018-07-03T23:40:56.008Z,54.85
2018-07-03T23:43:25.116Z,54.59
2018-07-03T23:45:57.361Z,54.95
2018-07-03T23:49:02.928Z,55.03
2018-07-03T23:52:08.197Z,55.29
2018-07-03T23:55:13.585Z,55.00
2018-07-03T23:58:19.114Z,55.01
